Aviation Digital Data Service (ADDS)

Output produced by METARs form (0913 UTC 23 July 2019)
found at http://www.aviationweather.gov/metar/data/
 
METAR text: VOMY 230900Z 27005KT 5000 -DZ SCT010 SCT015 BKN080 24/22 Q1011
Conditions at: VOMY (MYSORE , IN) observed 0900 UTC 23 July 2019
Temperature: 24.0°C (75°F)
Dewpoint: 22.0°C (72°F) [RH = 89%]
Pressure (altimeter): 29.85 inches Hg (1011.0 mb)
Winds: from the W (270 degrees) at 6 MPH (5 knots; 2.6 m/s)
Visibility: 3 miles ( 5 km)
Ceiling: 8000 feet AGL
Clouds: scattered clouds at 1000 feet AGL
scattered clouds at 1500 feet AGL
broken clouds at 8000 feet AGL
Weather: -DZ  (light drizzle)

METAR text: VOMY 230830Z 27008KT 3000 -RA BKN010 SCT015 BKN080 24/22 Q1011
Conditions at: VOMY (MYSORE , IN) observed 0830 UTC 23 July 2019
Temperature: 24.0°C (75°F)
Dewpoint: 22.0°C (72°F) [RH = 89%]
Pressure (altimeter): 29.85 inches Hg (1011.0 mb)
Winds: from the W (270 degrees) at 9 MPH (8 knots; 4.1 m/s)
Visibility: 1.86 miles (2.99 km)
Ceiling: 1000 feet AGL
Clouds: broken clouds at 1000 feet AGL
scattered clouds at 1500 feet AGL
broken clouds at 8000 feet AGL
Weather: -RA  (light rain)

METAR text: VOMY 230800Z 30010KT 6000 -DZ SCT010 SCT015 BKN080 25/21 Q1011
Conditions at: VOMY (MYSORE , IN) observed 0800 UTC 23 July 2019
Temperature: 25.0°C (77°F)
Dewpoint: 21.0°C (70°F) [RH = 79%]
Pressure (altimeter): 29.85 inches Hg (1011.0 mb)
Winds: from the WNW (300 degrees) at 12 MPH (10 knots; 5.1 m/s)
Visibility: 4 miles ( 6 km)
Ceiling: 8000 feet AGL
Clouds: scattered clouds at 1000 feet AGL
scattered clouds at 1500 feet AGL
broken clouds at 8000 feet AGL
Weather: -DZ  (light drizzle)

METAR text: VOMY 230730Z 27018KT 6000 -DZ SCT010 SCT015 BKN080 26/21 Q1011
Conditions at: VOMY (MYSORE , IN) observed 0730 UTC 23 July 2019
Temperature: 26.0°C (79°F)
Dewpoint: 21.0°C (70°F) [RH = 74%]
Pressure (altimeter): 29.85 inches Hg (1011.0 mb)
Winds: from the W (270 degrees) at 21 MPH (18 knots; 9.3 m/s)
Visibility: 4 miles ( 6 km)
Ceiling: 8000 feet AGL
Clouds: scattered clouds at 1000 feet AGL
scattered clouds at 1500 feet AGL
broken clouds at 8000 feet AGL
Weather: -DZ  (light drizzle)

METAR text: VOMY 230700Z 25015KT 9999 SCT015 SCT080 27/21 Q1011
Conditions at: VOMY (MYSORE , IN) observed 0700 UTC 23 July 2019
Temperature: 27.0°C (81°F)
Dewpoint: 21.0°C (70°F) [RH = 70%]
Pressure (altimeter): 29.85 inches Hg (1011.0 mb)
Winds: from the WSW (250 degrees) at 17 MPH (15 knots; 7.7 m/s)
Visibility: 6 or more miles (10+ km)
Ceiling: at least 12,000 feet AGL
Clouds: scattered clouds at 1500 feet AGL
scattered clouds at 8000 feet AGL
Weather: no significant weather observed at this time

METAR text: VOMY 230630Z 27012KT 9999 SCT015 SCT080 27/20 Q1012
Conditions at: VOMY (MYSORE , IN) observed 0630 UTC 23 July 2019
Temperature: 27.0°C (81°F)
Dewpoint: 20.0°C (68°F) [RH = 66%]
Pressure (altimeter): 29.88 inches Hg (1012.0 mb)
Winds: from the W (270 degrees) at 14 MPH (12 knots; 6.2 m/s)
Visibility: 6 or more miles (10+ km)
Ceiling: at least 12,000 feet AGL
Clouds: scattered clouds at 1500 feet AGL
scattered clouds at 8000 feet AGL
Weather: no significant weather observed at this time

METAR text: VOMY 230600Z 27010KT 9999 SCT015 SCT080 26/20 Q1012
Conditions at: VOMY (MYSORE , IN) observed 0600 UTC 23 July 2019
Temperature: 26.0°C (79°F)
Dewpoint: 20.0°C (68°F) [RH = 70%]
Pressure (altimeter): 29.88 inches Hg (1012.0 mb)
Winds: from the W (270 degrees) at 12 MPH (10 knots; 5.1 m/s)
Visibility: 6 or more miles (10+ km)
Ceiling: at least 12,000 feet AGL
Clouds: scattered clouds at 1500 feet AGL
scattered clouds at 8000 feet AGL
Weather: no significant weather observed at this time

METAR text: VOMY 230530Z 27012KT 9999 SCT015 SCT080 26/20 Q1012
Conditions at: VOMY (MYSORE , IN) observed 0530 UTC 23 July 2019
Temperature: 26.0°C (79°F)
Dewpoint: 20.0°C (68°F) [RH = 70%]
Pressure (altimeter): 29.88 inches Hg (1012.0 mb)
Winds: from the W (270 degrees) at 14 MPH (12 knots; 6.2 m/s)
Visibility: 6 or more miles (10+ km)
Ceiling: at least 12,000 feet AGL
Clouds: scattered clouds at 1500 feet AGL
scattered clouds at 8000 feet AGL
Weather: no significant weather observed at this time

METAR text: VOMY 230500Z 27012KT 6000 SCT015 SCT080 25/21 Q1012
Conditions at: VOMY (MYSORE , IN) observed 0500 UTC 23 July 2019
Temperature: 25.0°C (77°F)
Dewpoint: 21.0°C (70°F) [RH = 79%]
Pressure (altimeter): 29.88 inches Hg (1012.0 mb)
Winds: from the W (270 degrees) at 14 MPH (12 knots; 6.2 m/s)
Visibility: 4 miles ( 6 km)
Ceiling: at least 12,000 feet AGL
Clouds: scattered clouds at 1500 feet AGL
scattered clouds at 8000 feet AGL
Weather: no significant weather observed at this time

METAR text: VOMY 230430Z 29012KT 6000 SCT010 SCT015 24/21 Q1013
Conditions at: VOMY (MYSORE , IN) observed 0430 UTC 23 July 2019
Temperature: 24.0°C (75°F)
Dewpoint: 21.0°C (70°F) [RH = 83%]
Pressure (altimeter): 29.91 inches Hg (1013.0 mb)
Winds: from the WNW (290 degrees) at 14 MPH (12 knots; 6.2 m/s)
Visibility: 4 miles ( 6 km)
Ceiling: at least 12,000 feet AGL
Clouds: scattered clouds at 1000 feet AGL
scattered clouds at 1500 feet AGL
Weather: no significant weather observed at this time

METAR text: VOMY 230400Z 26010KT 6000 SCT010 SCT015 24/21 Q1013
Conditions at: VOMY (MYSORE , IN) observed 0400 UTC 23 July 2019
Temperature: 24.0°C (75°F)
Dewpoint: 21.0°C (70°F) [RH = 83%]
Pressure (altimeter): 29.91 inches Hg (1013.0 mb)
Winds: from the W (260 degrees) at 12 MPH (10 knots; 5.1 m/s)
Visibility: 4 miles ( 6 km)
Ceiling: at least 12,000 feet AGL
Clouds: scattered clouds at 1000 feet AGL
scattered clouds at 1500 feet AGL
Weather: no significant weather observed at this time

METAR text: VOMY 230330Z 26014KT 6000 SCT010 SCT015 24/21 Q1012
Conditions at: VOMY (MYSORE , IN) observed 0330 UTC 23 July 2019
Temperature: 24.0°C (75°F)
Dewpoint: 21.0°C (70°F) [RH = 83%]
Pressure (altimeter): 29.88 inches Hg (1012.0 mb)
Winds: from the W (260 degrees) at 16 MPH (14 knots; 7.2 m/s)
Visibility: 4 miles ( 6 km)
Ceiling: at least 12,000 feet AGL
Clouds: scattered clouds at 1000 feet AGL
scattered clouds at 1500 feet AGL
Weather: no significant weather observed at this time

METAR text: VOMY 221500Z 27007KT 3000 -RA BKN008 SCT012 BKN080 22/21 Q1012
Conditions at: VOMY (MYSORE , IN) observed 1500 UTC 22 July 2019
Temperature: 22.0°C (72°F)
Dewpoint: 21.0°C (70°F) [RH = 94%]
Pressure (altimeter): 29.88 inches Hg (1012.0 mb)
Winds: from the W (270 degrees) at 8 MPH (7 knots; 3.6 m/s)
Visibility: 1.86 miles (2.99 km)
Ceiling: 800 feet AGL
Clouds: broken clouds at 800 feet AGL
scattered clouds at 1200 feet AGL
broken clouds at 8000 feet AGL
Weather: -RA  (light rain)

METAR text: VOMY 221430Z 26006KT 4000 -DZ BKN008 SCT012 BKN080 22/21 Q1012
Conditions at: VOMY (MYSORE , IN) observed 1430 UTC 22 July 2019
Temperature: 22.0°C (72°F)
Dewpoint: 21.0°C (70°F) [RH = 94%]
Pressure (altimeter): 29.88 inches Hg (1012.0 mb)
Winds: from the W (260 degrees) at 7 MPH (6 knots; 3.1 m/s)
Visibility: 2.49 miles (4.01 km)
Ceiling: 800 feet AGL
Clouds: broken clouds at 800 feet AGL
scattered clouds at 1200 feet AGL
broken clouds at 8000 feet AGL
Weather: -DZ  (light drizzle)

METAR text: VOMY 221400Z 25008KT 4000 -DZ BKN008 SCT012 BKN080 22/21 Q1011
Conditions at: VOMY (MYSORE , IN) observed 1400 UTC 22 July 2019
Temperature: 22.0°C (72°F)
Dewpoint: 21.0°C (70°F) [RH = 94%]
Pressure (altimeter): 29.85 inches Hg (1011.0 mb)
Winds: from the WSW (250 degrees) at 9 MPH (8 knots; 4.1 m/s)
Visibility: 2.49 miles (4.01 km)
Ceiling: 800 feet AGL
Clouds: broken clouds at 800 feet AGL
scattered clouds at 1200 feet AGL
broken clouds at 8000 feet AGL
Weather: -DZ  (light drizzle)

METAR text: VOMY 221330Z 24010KT 4000 -DZ BKN008 SCT012 BKN080 23/21 Q1011
Conditions at: VOMY (MYSORE , IN) observed 1330 UTC 22 July 2019
Temperature: 23.0°C (73°F)
Dewpoint: 21.0°C (70°F) [RH = 89%]
Pressure (altimeter): 29.85 inches Hg (1011.0 mb)
Winds: from the WSW (240 degrees) at 12 MPH (10 knots; 5.1 m/s)
Visibility: 2.49 miles (4.01 km)
Ceiling: 800 feet AGL
Clouds: broken clouds at 800 feet AGL
scattered clouds at 1200 feet AGL
broken clouds at 8000 feet AGL
Weather: -DZ  (light drizzle)

METAR text: VOMY 221300Z 24006KT 6000 -DZ BKN010 SCT012 BKN080 23/21 Q1011
Conditions at: VOMY (MYSORE , IN) observed 1300 UTC 22 July 2019
Temperature: 23.0°C (73°F)
Dewpoint: 21.0°C (70°F) [RH = 89%]
Pressure (altimeter): 29.85 inches Hg (1011.0 mb)
Winds: from the WSW (240 degrees) at 7 MPH (6 knots; 3.1 m/s)
Visibility: 4 miles ( 6 km)
Ceiling: 1000 feet AGL
Clouds: broken clouds at 1000 feet AGL
scattered clouds at 1200 feet AGL
broken clouds at 8000 feet AGL
Weather: -DZ  (light drizzle)

METAR text: VOMY 221230Z 24010KT 4000 -DZ BKN010 SCT012 BKN080 23/21 Q1010
Conditions at: VOMY (MYSORE , IN) observed 1230 UTC 22 July 2019
Temperature: 23.0°C (73°F)
Dewpoint: 21.0°C (70°F) [RH = 89%]
Pressure (altimeter): 29.82 inches Hg (1010.0 mb)
Winds: from the WSW (240 degrees) at 12 MPH (10 knots; 5.1 m/s)
Visibility: 2.49 miles (4.01 km)
Ceiling: 1000 feet AGL
Clouds: broken clouds at 1000 feet AGL
scattered clouds at 1200 feet AGL
broken clouds at 8000 feet AGL
Weather: -DZ  (light drizzle)

METAR text: VOMY 221200Z 26010KT 4000 -RA BKN010 SCT012 BKN080 23/22 Q1010
Conditions at: VOMY (MYSORE , IN) observed 1200 UTC 22 July 2019
Temperature: 23.0°C (73°F)
Dewpoint: 22.0°C (72°F) [RH = 94%]
Pressure (altimeter): 29.82 inches Hg (1010.0 mb)
Winds: from the W (260 degrees) at 12 MPH (10 knots; 5.1 m/s)
Visibility: 2.49 miles (4.01 km)
Ceiling: 1000 feet AGL
Clouds: broken clouds at 1000 feet AGL
scattered clouds at 1200 feet AGL
broken clouds at 8000 feet AGL
Weather: -RA  (light rain)

METAR text: VOMY 221130Z 24015KT 6000 -DZ SCT010 SCT012 BKN080 23/22 Q1010
Conditions at: VOMY (MYSORE , IN) observed 1130 UTC 22 July 2019
Temperature: 23.0°C (73°F)
Dewpoint: 22.0°C (72°F) [RH = 94%]
Pressure (altimeter): 29.82 inches Hg (1010.0 mb)
Winds: from the WSW (240 degrees) at 17 MPH (15 knots; 7.7 m/s)
Visibility: 4 miles ( 6 km)
Ceiling: 8000 feet AGL
Clouds: scattered clouds at 1000 feet AGL
scattered clouds at 1200 feet AGL
broken clouds at 8000 feet AGL
Weather: -DZ  (light drizzle)

METAR text: VOMY 221100Z 24010KT 8000 SCT010 SCT012 BKN080 24/22 Q1010
Conditions at: VOMY (MYSORE , IN) observed 1100 UTC 22 July 2019
Temperature: 24.0°C (75°F)
Dewpoint: 22.0°C (72°F) [RH = 89%]
Pressure (altimeter): 29.82 inches Hg (1010.0 mb)
Winds: from the WSW (240 degrees) at 12 MPH (10 knots; 5.1 m/s)
Visibility: 5 miles ( 8 km)
Ceiling: 8000 feet AGL
Clouds: scattered clouds at 1000 feet AGL
scattered clouds at 1200 feet AGL
broken clouds at 8000 feet AGL
Weather: no significant weather observed at this time

METAR text: VOMY 221030Z 24009KT 6000 SCT010 SCT012 BKN080 23/22 Q1009
Conditions at: VOMY (MYSORE , IN) observed 1030 UTC 22 July 2019
Temperature: 23.0°C (73°F)
Dewpoint: 22.0°C (72°F) [RH = 94%]
Pressure (altimeter): 29.79 inches Hg (1009.0 mb)
Winds: from the WSW (240 degrees) at 10 MPH (9 knots; 4.6 m/s)
Visibility: 4 miles ( 6 km)
Ceiling: 8000 feet AGL
Clouds: scattered clouds at 1000 feet AGL
scattered clouds at 1200 feet AGL
broken clouds at 8000 feet AGL
Weather: no significant weather observed at this time

METAR text: VOMY 221000Z 23009KT 6000 -DZ SCT010 SCT012 BKN080 23/22 Q1010
Conditions at: VOMY (MYSORE , IN) observed 1000 UTC 22 July 2019
Temperature: 23.0°C (73°F)
Dewpoint: 22.0°C (72°F) [RH = 94%]
Pressure (altimeter): 29.82 inches Hg (1010.0 mb)
Winds: from the SW (230 degrees) at 10 MPH (9 knots; 4.6 m/s)
Visibility: 4 miles ( 6 km)
Ceiling: 8000 feet AGL
Clouds: scattered clouds at 1000 feet AGL
scattered clouds at 1200 feet AGL
broken clouds at 8000 feet AGL
Weather: -DZ  (light drizzle)

METAR text: VOMY 220930Z 24006KT 6000 -DZ BKN012 BKN080 24/21 Q1010
Conditions at: VOMY (MYSORE , IN) observed 0930 UTC 22 July 2019
Temperature: 24.0°C (75°F)
Dewpoint: 21.0°C (70°F) [RH = 83%]
Pressure (altimeter): 29.82 inches Hg (1010.0 mb)
Winds: from the WSW (240 degrees) at 7 MPH (6 knots; 3.1 m/s)
Visibility: 4 miles ( 6 km)
Ceiling: 1200 feet AGL
Clouds: broken clouds at 1200 feet AGL
broken clouds at 8000 feet AGL
Weather: -DZ  (light drizzle)

METAR text: VOMY 220900Z 24009KT 6000 -DZ BKN015 BKN080 24/12 Q1010
Conditions at: VOMY (MYSORE , IN) observed 0900 UTC 22 July 2019
Temperature: 24.0°C (75°F)
Dewpoint: 12.0°C (54°F) [RH = 47%]
Pressure (altimeter): 29.82 inches Hg (1010.0 mb)
Winds: from the WSW (240 degrees) at 10 MPH (9 knots; 4.6 m/s)
Visibility: 4 miles ( 6 km)
Ceiling: 1500 feet AGL
Clouds: broken clouds at 1500 feet AGL
broken clouds at 8000 feet AGL
Weather: -DZ  (light drizzle)

METAR text: VOMY 220830Z 27009KT 6000 -DZ BKN015 BKN080 23/13 Q1011
Conditions at: VOMY (MYSORE , IN) observed 0830 UTC 22 July 2019
Temperature: 23.0°C (73°F)
Dewpoint: 13.0°C (55°F) [RH = 53%]
Pressure (altimeter): 29.85 inches Hg (1011.0 mb)
Winds: from the W (270 degrees) at 10 MPH (9 knots; 4.6 m/s)
Visibility: 4 miles ( 6 km)
Ceiling: 1500 feet AGL
Clouds: broken clouds at 1500 feet AGL
broken clouds at 8000 feet AGL
Weather: -DZ  (light drizzle)

METAR text: VOMY 220800Z 27009KT 6000 -DZ BKN015 BKN080 23/13 Q1011
Conditions at: VOMY (MYSORE , IN) observed 0800 UTC 22 July 2019
Temperature: 23.0°C (73°F)
Dewpoint: 13.0°C (55°F) [RH = 53%]
Pressure (altimeter): 29.85 inches Hg (1011.0 mb)
Winds: from the W (270 degrees) at 10 MPH (9 knots; 4.6 m/s)
Visibility: 4 miles ( 6 km)
Ceiling: 1500 feet AGL
Clouds: broken clouds at 1500 feet AGL
broken clouds at 8000 feet AGL
Weather: -DZ  (light drizzle)

METAR text: VOMY 220730Z 26019KT 8000 BKN015 BKN080 26/19 Q1011
Conditions at: VOMY (MYSORE , IN) observed 0730 UTC 22 July 2019
Temperature: 26.0°C (79°F)
Dewpoint: 19.0°C (66°F) [RH = 65%]
Pressure (altimeter): 29.85 inches Hg (1011.0 mb)
Winds: from the W (260 degrees) at 22 MPH (19 knots; 9.8 m/s)
Visibility: 5 miles ( 8 km)
Ceiling: 1500 feet AGL
Clouds: broken clouds at 1500 feet AGL
broken clouds at 8000 feet AGL
Weather: no significant weather observed at this time

METAR text: VOMY 220700Z 27018KT 8000 BKN015 BKN080 26/20 Q1011
Conditions at: VOMY (MYSORE , IN) observed 0700 UTC 22 July 2019
Temperature: 26.0°C (79°F)
Dewpoint: 20.0°C (68°F) [RH = 70%]
Pressure (altimeter): 29.85 inches Hg (1011.0 mb)
Winds: from the W (270 degrees) at 21 MPH (18 knots; 9.3 m/s)
Visibility: 5 miles ( 8 km)
Ceiling: 1500 feet AGL
Clouds: broken clouds at 1500 feet AGL
broken clouds at 8000 feet AGL
Weather: no significant weather observed at this time

METAR text: VOMY 220630Z 26018KT 8000 BKN015 BKN080 26/20 Q1012
Conditions at: VOMY (MYSORE , IN) observed 0630 UTC 22 July 2019
Temperature: 26.0°C (79°F)
Dewpoint: 20.0°C (68°F) [RH = 70%]
Pressure (altimeter): 29.88 inches Hg (1012.0 mb)
Winds: from the W (260 degrees) at 21 MPH (18 knots; 9.3 m/s)
Visibility: 5 miles ( 8 km)
Ceiling: 1500 feet AGL
Clouds: broken clouds at 1500 feet AGL
broken clouds at 8000 feet AGL
Weather: no significant weather observed at this time

METAR text: VOMY 220530Z 25014KT 9999 BKN015 BKN080 25/21 Q1012
Conditions at: VOMY (MYSORE , IN) observed 0530 UTC 22 July 2019
Temperature: 25.0°C (77°F)
Dewpoint: 21.0°C (70°F) [RH = 79%]
Pressure (altimeter): 29.88 inches Hg (1012.0 mb)
Winds: from the WSW (250 degrees) at 16 MPH (14 knots; 7.2 m/s)
Visibility: 6 or more miles (10+ km)
Ceiling: 1500 feet AGL
Clouds: broken clouds at 1500 feet AGL
broken clouds at 8000 feet AGL
Weather: no significant weather observed at this time

METAR text: VOMY 220500Z 26018KT 9999 BKN015 BKN080 25/20 Q1012
Conditions at: VOMY (MYSORE , IN) observed 0500 UTC 22 July 2019
Temperature: 25.0°C (77°F)
Dewpoint: 20.0°C (68°F) [RH = 74%]
Pressure (altimeter): 29.88 inches Hg (1012.0 mb)
Winds: from the W (260 degrees) at 21 MPH (18 knots; 9.3 m/s)
Visibility: 6 or more miles (10+ km)
Ceiling: 1500 feet AGL
Clouds: broken clouds at 1500 feet AGL
broken clouds at 8000 feet AGL
Weather: no significant weather observed at this time

METAR text: VOMY 220430Z 27015KT 9999 SCT015 BKN080 24/20 Q1012
Conditions at: VOMY (MYSORE , IN) observed 0430 UTC 22 July 2019
Temperature: 24.0°C (75°F)
Dewpoint: 20.0°C (68°F) [RH = 78%]
Pressure (altimeter): 29.88 inches Hg (1012.0 mb)
Winds: from the W (270 degrees) at 17 MPH (15 knots; 7.7 m/s)
Visibility: 6 or more miles (10+ km)
Ceiling: 8000 feet AGL
Clouds: scattered clouds at 1500 feet AGL
broken clouds at 8000 feet AGL
Weather: no significant weather observed at this time

METAR text: VOMY 220400Z 27013KT 9999 SCT015 BKN080 24/20 Q1012
Conditions at: VOMY (MYSORE , IN) observed 0400 UTC 22 July 2019
Temperature: 24.0°C (75°F)
Dewpoint: 20.0°C (68°F) [RH = 78%]
Pressure (altimeter): 29.88 inches Hg (1012.0 mb)
Winds: from the W (270 degrees) at 15 MPH (13 knots; 6.7 m/s)
Visibility: 6 or more miles (10+ km)
Ceiling: 8000 feet AGL
Clouds: scattered clouds at 1500 feet AGL
broken clouds at 8000 feet AGL
Weather: no significant weather observed at this time

METAR text: VOMY 220330Z 26013KT 8000 SCT012 BKN080 23/20 Q1012
Conditions at: VOMY (MYSORE , IN) observed 0330 UTC 22 July 2019
Temperature: 23.0°C (73°F)
Dewpoint: 20.0°C (68°F) [RH = 83%]
Pressure (altimeter): 29.88 inches Hg (1012.0 mb)
Winds: from the W (260 degrees) at 15 MPH (13 knots; 6.7 m/s)
Visibility: 5 miles ( 8 km)
Ceiling: 8000 feet AGL
Clouds: scattered clouds at 1200 feet AGL
broken clouds at 8000 feet AGL
Weather: no significant weather observed at this time

METAR text: VOMY 220300Z 25014KT 8000 SCT012 BKN080 23/20 Q1011
Conditions at: VOMY (MYSORE , IN) observed 0300 UTC 22 July 2019
Temperature: 23.0°C (73°F)
Dewpoint: 20.0°C (68°F) [RH = 83%]
Pressure (altimeter): 29.85 inches Hg (1011.0 mb)
Winds: from the WSW (250 degrees) at 16 MPH (14 knots; 7.2 m/s)
Visibility: 5 miles ( 8 km)
Ceiling: 8000 feet AGL
Clouds: scattered clouds at 1200 feet AGL
broken clouds at 8000 feet AGL
Weather: no significant weather observed at this time

METAR text: VOMY 220230Z 24013KT 6000 SCT010 BKN080 23/19 Q1011
Conditions at: VOMY (MYSORE , IN) observed 0230 UTC 22 July 2019
Temperature: 23.0°C (73°F)
Dewpoint: 19.0°C (66°F) [RH = 78%]
Pressure (altimeter): 29.85 inches Hg (1011.0 mb)
Winds: from the WSW (240 degrees) at 15 MPH (13 knots; 6.7 m/s)
Visibility: 4 miles ( 6 km)
Ceiling: 8000 feet AGL
Clouds: scattered clouds at 1000 feet AGL
broken clouds at 8000 feet AGL
Weather: no significant weather observed at this time

METAR text: VOMY 220200Z 26008KT 6000 SCT010 BKN080 23/19 Q1011
Conditions at: VOMY (MYSORE , IN) observed 0200 UTC 22 July 2019
Temperature: 23.0°C (73°F)
Dewpoint: 19.0°C (66°F) [RH = 78%]
Pressure (altimeter): 29.85 inches Hg (1011.0 mb)
Winds: from the W (260 degrees) at 9 MPH (8 knots; 4.1 m/s)
Visibility: 4 miles ( 6 km)
Ceiling: 8000 feet AGL
Clouds: scattered clouds at 1000 feet AGL
broken clouds at 8000 feet AGL
Weather: no significant weather observed at this time

METAR text: VOMY 220130Z 25007KT 6000 SCT010 BKN080 22/19 Q1011
Conditions at: VOMY (MYSORE , IN) observed 0130 UTC 22 July 2019
Temperature: 22.0°C (72°F)
Dewpoint: 19.0°C (66°F) [RH = 83%]
Pressure (altimeter): 29.85 inches Hg (1011.0 mb)
Winds: from the WSW (250 degrees) at 8 MPH (7 knots; 3.6 m/s)
Visibility: 4 miles ( 6 km)
Ceiling: 8000 feet AGL
Clouds: scattered clouds at 1000 feet AGL
broken clouds at 8000 feet AGL
Weather: no significant weather observed at this time

Forecast for: VOMY (MYSORE , IN)
Text: TAF VOMY 230800Z 2309/2318 27015KT 6000 SCT012 SCT018
Forecast period: 0900 to 1800 UTC 23 July 2019
Forecast type: FROM: standard forecast or significant change
Winds: from the W (270 degrees) at 17 MPH (15 knots; 7.7 m/s)
Visibility: 4 miles (6 km)
Ceiling: at least 12,000 feet AGL
Clouds: scattered clouds at 1200 feet AGL
scattered clouds at 1800 feet AGL
Weather: no significant weather forecast for this period
Text: TEMPO 2309/2315 4000 RA DZ SCT01
Forecast period: 0900 to 1500 UTC 23 July 2019
Forecast type: TEMPORARY: The following changes expected for less than half the time period
Visibility: 2.49 miles (4.01 km)
Ceiling: unknown
Clouds: missing
Weather: RA DZ  (moderate rain, moderate drizzle)